Farmersville's Hourly Summary for Tuesday, April 18, 2017
Hour Temp
(f)
RH
(%)
Solar Rad.
(MJ/m2)
Rainfall
(in)
Wind
(mph)
4/18/2017 12:00 AM 62 99 0 0 0.61
4/18/2017 1:00 AM 63 99 0 0 1.17
4/18/2017 2:00 AM 64 99 0 0 2.54
4/18/2017 3:00 AM 64 99 0 0 0.36
4/18/2017 4:00 AM 62 99 0 0 0.01
4/18/2017 5:00 AM 62 99 0 0 0.65
4/18/2017 6:00 AM 62 99 0 0 0.04
4/18/2017 7:00 AM 62 99 0 0 0.15
4/18/2017 8:00 AM 62 99 0.11 0 0.55
4/18/2017 9:00 AM 65 99 0.45 0 0.06
4/18/2017 10:00 AM 69 82 1.43 0 1.43
4/18/2017 11:00 AM 72 69 2.3 0 3.26
4/18/2017 12:00 PM 74 64 2.73 0 4.09
4/18/2017 1:00 PM 77 55 2.94 0 4.76
4/18/2017 2:00 PM 78 56 2.97 0 4.63
4/18/2017 3:00 PM 78 54 2.49 0 4.3
4/18/2017 4:00 PM 78 52 1.86 0 3.44
4/18/2017 5:00 PM 79 51 1.84 0 2.39
4/18/2017 6:00 PM 80 52 1.6 0 2.48
4/18/2017 7:00 PM 79 54 0.85 0 2.78
4/18/2017 8:00 PM 72 58 0.13 0 3.85
4/18/2017 9:00 PM 67 79 0 0 0.91
4/18/2017 10:00 PM 65 83 0 0 0.3
4/18/2017 11:00 PM 64 90 0 0 0.19
Data Summary 69 78 21.70 0.00 1.87